sensor_id;sensor_type;location;lat;lon;timestamp;P1;durP1;ratioP1;P2;durP2;ratioP2
20535;SDS011;10426;49.420;8.390;2024-01-16T00:00:24;3.88;;;3.47;;
20535;SDS011;10426;49.420;8.390;2024-01-16T00:02:52;4.82;;;3.65;;
20535;SDS011;10426;49.420;8.390;2024-01-16T00:05:19;4.80;;;3.40;;
20535;SDS011;10426;49.420;8.390;2024-01-16T00:07:45;5.38;;;3.45;;
20535;SDS011;10426;49.420;8.390;2024-01-16T00:10:12;3.97;;;3.60;;
20535;SDS011;10426;49.420;8.390;2024-01-16T00:12:38;4.78;;;3.60;;
20535;SDS011;10426;49.420;8.390;2024-01-16T00:15:06;4.30;;;3.20;;
20535;SDS011;10426;49.420;8.390;2024-01-16T00:17:34;5.93;;;3.47;;
20535;SDS011;10426;49.420;8.390;2024-01-16T00:20:02;4.68;;;3.47;;
20535;SDS011;10426;49.420;8.390;2024-01-16T00:22:30;5.40;;;3.35;;
20535;SDS011;10426;49.420;8.390;2024-01-16T00:24:57;5.03;;;3.60;;
20535;SDS011;10426;49.420;8.390;2024-01-16T00:27:23;6.93;;;3.67;;
20535;SDS011;10426;49.420;8.390;2024-01-16T00:29:50;4.72;;;3.47;;
20535;SDS011;10426;49.420;8.390;2024-01-16T00:32:16;4.27;;;3.37;;
20535;SDS011;10426;49.420;8.390;2024-01-16T00:34:43;4.53;;;3.53;;
20535;SDS011;10426;49.420;8.390;2024-01-16T00:37:11;4.68;;;3.53;;
20535;SDS011;10426;49.420;8.390;2024-01-16T00:39:37;4.90;;;3.80;;
20535;SDS011;10426;49.420;8.390;2024-01-16T00:42:04;4.50;;;3.70;;
20535;SDS011;10426;49.420;8.390;2024-01-16T00:44:31;4.32;;;3.70;;
20535;SDS011;10426;49.420;8.390;2024-01-16T00:46:57;6.25;;;4.28;;
20535;SDS011;10426;49.420;8.390;2024-01-16T00:49:26;5.37;;;4.87;;
20535;SDS011;10426;49.420;8.390;2024-01-16T00:51:53;8.40;;;5.20;;
20535;SDS011;10426;49.420;8.390;2024-01-16T00:54:21;7.37;;;5.03;;
20535;SDS011;10426;49.420;8.390;2024-01-16T00:56:48;4.32;;;3.92;;
20535;SDS011;10426;49.420;8.390;2024-01-16T00:59:14;5.27;;;3.90;;
20535;SDS011;10426;49.420;8.390;2024-01-16T01:01:41;4.35;;;3.95;;
20535;SDS011;10426;49.420;8.390;2024-01-16T01:04:07;5.18;;;3.90;;
20535;SDS011;10426;49.420;8.390;2024-01-16T01:06:35;4.80;;;4.00;;
20535;SDS011;10426;49.420;8.390;2024-01-16T01:09:01;4.03;;;3.60;;
20535;SDS011;10426;49.420;8.390;2024-01-16T01:11:29;4.47;;;4.07;;
20535;SDS011;10426;49.420;8.390;2024-01-16T01:13:56;5.65;;;3.85;;
20535;SDS011;10426;49.420;8.390;2024-01-16T01:16:22;4.90;;;3.90;;
20535;SDS011;10426;49.420;8.390;2024-01-16T01:18:49;4.57;;;4.00;;
20535;SDS011;10426;49.420;8.390;2024-01-16T01:21:16;5.03;;;3.80;;
20535;SDS011;10426;49.420;8.390;2024-01-16T01:23:43;5.83;;;4.20;;
20535;SDS011;10426;49.420;8.390;2024-01-16T01:26:09;8.35;;;4.32;;
20535;SDS011;10426;49.420;8.390;2024-01-16T01:28:40;5.63;;;4.27;;
20535;SDS011;10426;49.420;8.390;2024-01-16T01:31:08;5.43;;;4.13;;
20535;SDS011;10426;49.420;8.390;2024-01-16T01:33:34;5.28;;;4.15;;
20535;SDS011;10426;49.420;8.390;2024-01-16T01:36:01;5.70;;;4.30;;
20535;SDS011;10426;49.420;8.390;2024-01-16T01:38:28;6.97;;;4.40;;
20535;SDS011;10426;49.420;8.390;2024-01-16T01:40:54;5.18;;;4.50;;
20535;SDS011;10426;49.420;8.390;2024-01-16T01:43:22;6.38;;;4.60;;
20535;SDS011;10426;49.420;8.390;2024-01-16T01:45:54;5.72;;;4.40;;
20535;SDS011;10426;49.420;8.390;2024-01-16T01:48:22;6.03;;;4.70;;
20535;SDS011;10426;49.420;8.390;2024-01-16T01:50:49;6.03;;;4.80;;
20535;SDS011;10426;49.420;8.390;2024-01-16T01:53:16;6.50;;;4.83;;
20535;SDS011;10426;49.420;8.390;2024-01-16T01:55:42;5.20;;;4.50;;
20535;SDS011;10426;49.420;8.390;2024-01-16T01:58:09;5.63;;;4.60;;
20535;SDS011;10426;49.420;8.390;2024-01-16T02:00:36;5.00;;;4.50;;
20535;SDS011;10426;49.420;8.390;2024-01-16T02:03:04;5.63;;;4.45;;
20535;SDS011;10426;49.420;8.390;2024-01-16T02:05:30;5.75;;;4.70;;
20535;SDS011;10426;49.420;8.390;2024-01-16T02:07:58;7.22;;;4.70;;
20535;SDS011;10426;49.420;8.390;2024-01-16T02:10:24;6.55;;;4.80;;
20535;SDS011;10426;49.420;8.390;2024-01-16T02:12:51;5.38;;;4.88;;
20535;SDS011;10426;49.420;8.390;2024-01-16T02:15:18;6.65;;;4.90;;
20535;SDS011;10426;49.420;8.390;2024-01-16T02:17:44;8.10;;;4.88;;
20535;SDS011;10426;49.420;8.390;2024-01-16T02:20:15;6.45;;;5.20;;
20535;SDS011;10426;49.420;8.390;2024-01-16T02:22:41;6.97;;;4.87;;
20535;SDS011;10426;49.420;8.390;2024-01-16T02:25:13;6.13;;;4.93;;
20535;SDS011;10426;49.420;8.390;2024-01-16T02:27:39;6.97;;;5.40;;
20535;SDS011;10426;49.420;8.390;2024-01-16T02:30:06;6.60;;;5.53;;
20535;SDS011;10426;49.420;8.390;2024-01-16T02:32:33;5.93;;;4.80;;
20535;SDS011;10426;49.420;8.390;2024-01-16T02:34:59;6.43;;;4.88;;
20535;SDS011;10426;49.420;8.390;2024-01-16T02:37:26;5.68;;;4.70;;
20535;SDS011;10426;49.420;8.390;2024-01-16T02:39:53;5.40;;;4.82;;
20535;SDS011;10426;49.420;8.390;2024-01-16T02:42:21;7.70;;;5.05;;
20535;SDS011;10426;49.420;8.390;2024-01-16T02:44:47;5.40;;;4.90;;
20535;SDS011;10426;49.420;8.390;2024-01-16T02:47:14;5.80;;;5.07;;
20535;SDS011;10426;49.420;8.390;2024-01-16T02:49:41;6.47;;;5.43;;
20535;SDS011;10426;49.420;8.390;2024-01-16T02:52:07;7.72;;;5.32;;
20535;SDS011;10426;49.420;8.390;2024-01-16T02:54:34;6.15;;;5.22;;
20535;SDS011;10426;49.420;8.390;2024-01-16T02:57:00;7.70;;;5.18;;
20535;SDS011;10426;49.420;8.390;2024-01-16T02:59:28;7.47;;;5.20;;
20535;SDS011;10426;49.420;8.390;2024-01-16T03:01:56;6.28;;;5.20;;
20535;SDS011;10426;49.420;8.390;2024-01-16T03:04:23;6.07;;;5.32;;
20535;SDS011;10426;49.420;8.390;2024-01-16T03:06:49;6.18;;;4.90;;
20535;SDS011;10426;49.420;8.390;2024-01-16T03:09:16;6.57;;;5.40;;
20535;SDS011;10426;49.420;8.390;2024-01-16T03:11:43;6.17;;;4.83;;
20535;SDS011;10426;49.420;8.390;2024-01-16T03:14:10;5.68;;;4.90;;
20535;SDS011;10426;49.420;8.390;2024-01-16T03:16:38;7.00;;;5.75;;
20535;SDS011;10426;49.420;8.390;2024-01-16T03:19:04;5.88;;;4.95;;
20535;SDS011;10426;49.420;8.390;2024-01-16T03:21:31;6.60;;;5.18;;
20535;SDS011;10426;49.420;8.390;2024-01-16T03:23:58;5.75;;;5.10;;
20535;SDS011;10426;49.420;8.390;2024-01-16T03:26:25;7.32;;;5.20;;
20535;SDS011;10426;49.420;8.390;2024-01-16T03:28:51;8.10;;;5.03;;
20535;SDS011;10426;49.420;8.390;2024-01-16T03:31:18;8.38;;;5.40;;
20535;SDS011;10426;49.420;8.390;2024-01-16T03:33:48;7.60;;;5.15;;
20535;SDS011;10426;49.420;8.390;2024-01-16T03:36:14;6.47;;;5.30;;
20535;SDS011;10426;49.420;8.390;2024-01-16T03:38:41;6.75;;;5.30;;
20535;SDS011;10426;49.420;8.390;2024-01-16T03:41:08;6.18;;;5.30;;
20535;SDS011;10426;49.420;8.390;2024-01-16T03:43:34;7.00;;;4.97;;
20535;SDS011;10426;49.420;8.390;2024-01-16T03:46:01;7.22;;;5.13;;
20535;SDS011;10426;49.420;8.390;2024-01-16T03:48:28;6.82;;;5.10;;
20535;SDS011;10426;49.420;8.390;2024-01-16T03:50:56;7.00;;;4.88;;
20535;SDS011;10426;49.420;8.390;2024-01-16T03:53:22;5.70;;;5.10;;
20535;SDS011;10426;49.420;8.390;2024-01-16T03:55:49;7.95;;;4.90;;
20535;SDS011;10426;49.420;8.390;2024-01-16T03:58:16;7.82;;;5.03;;
20535;SDS011;10426;49.420;8.390;2024-01-16T04:00:43;6.43;;;4.70;;
20535;SDS011;10426;49.420;8.390;2024-01-16T04:03:09;5.85;;;5.13;;
20535;SDS011;10426;49.420;8.390;2024-01-16T04:05:36;7.35;;;5.05;;
20535;SDS011;10426;49.420;8.390;2024-01-16T04:08:04;5.70;;;4.90;;
20535;SDS011;10426;49.420;8.390;2024-01-16T04:10:31;6.63;;;4.93;;
20535;SDS011;10426;49.420;8.390;2024-01-16T04:12:59;6.30;;;4.97;;
20535;SDS011;10426;49.420;8.390;2024-01-16T04:15:26;6.30;;;4.80;;
20535;SDS011;10426;49.420;8.390;2024-01-16T04:17:53;6.35;;;4.95;;
20535;SDS011;10426;49.420;8.390;2024-01-16T04:20:19;6.30;;;5.00;;
20535;SDS011;10426;49.420;8.390;2024-01-16T04:22:46;5.43;;;4.53;;
20535;SDS011;10426;49.420;8.390;2024-01-16T04:25:14;5.88;;;4.90;;
20535;SDS011;10426;49.420;8.390;2024-01-16T04:27:41;5.97;;;4.63;;
20535;SDS011;10426;49.420;8.390;2024-01-16T04:30:08;5.55;;;4.70;;
20535;SDS011;10426;49.420;8.390;2024-01-16T04:32:34;5.40;;;4.40;;
20535;SDS011;10426;49.420;8.390;2024-01-16T04:35:01;6.57;;;4.40;;
20535;SDS011;10426;49.420;8.390;2024-01-16T04:37:28;7.28;;;4.63;;
20535;SDS011;10426;49.420;8.390;2024-01-16T04:39:54;5.47;;;4.10;;
20535;SDS011;10426;49.420;8.390;2024-01-16T04:42:24;6.93;;;4.22;;
20535;SDS011;10426;49.420;8.390;2024-01-16T04:44:51;5.78;;;4.30;;
20535;SDS011;10426;49.420;8.390;2024-01-16T04:47:17;5.50;;;4.32;;
20535;SDS011;10426;49.420;8.390;2024-01-16T04:49:44;5.53;;;4.60;;
20535;SDS011;10426;49.420;8.390;2024-01-16T04:52:10;5.35;;;4.72;;
20535;SDS011;10426;49.420;8.390;2024-01-16T04:54:37;6.37;;;4.90;;
20535;SDS011;10426;49.420;8.390;2024-01-16T04:57:04;7.47;;;5.00;;
20535;SDS011;10426;49.420;8.390;2024-01-16T04:59:32;6.47;;;5.00;;
20535;SDS011;10426;49.420;8.390;2024-01-16T05:01:59;6.43;;;5.18;;
20535;SDS011;10426;49.420;8.390;2024-01-16T05:04:25;6.15;;;5.03;;
20535;SDS011;10426;49.420;8.390;2024-01-16T05:06:52;6.07;;;5.47;;
20535;SDS011;10426;49.420;8.390;2024-01-16T05:09:18;6.93;;;5.60;;
20535;SDS011;10426;49.420;8.390;2024-01-16T05:11:45;6.78;;;5.30;;
20535;SDS011;10426;49.420;8.390;2024-01-16T05:14:12;7.90;;;5.45;;
20535;SDS011;10426;49.420;8.390;2024-01-16T05:16:40;6.70;;;5.22;;
20535;SDS011;10426;49.420;8.390;2024-01-16T05:19:07;6.22;;;5.00;;
20535;SDS011;10426;49.420;8.390;2024-01-16T05:21:33;6.70;;;5.30;;
20535;SDS011;10426;49.420;8.390;2024-01-16T05:24:00;7.15;;;5.20;;
20535;SDS011;10426;49.420;8.390;2024-01-16T05:26:26;7.57;;;5.17;;
20535;SDS011;10426;49.420;8.390;2024-01-16T05:28:53;7.40;;;5.20;;
20535;SDS011;10426;49.420;8.390;2024-01-16T05:31:20;9.23;;;5.05;;
20535;SDS011;10426;49.420;8.390;2024-01-16T05:33:47;7.07;;;5.50;;
20535;SDS011;10426;49.420;8.390;2024-01-16T05:36:14;5.50;;;4.85;;
20535;SDS011;10426;49.420;8.390;2024-01-16T05:38:41;6.30;;;5.20;;
20535;SDS011;10426;49.420;8.390;2024-01-16T05:41:07;7.40;;;5.40;;
20535;SDS011;10426;49.420;8.390;2024-01-16T05:43:34;6.00;;;5.28;;
20535;SDS011;10426;49.420;8.390;2024-01-16T05:46:01;6.57;;;5.15;;
20535;SDS011;10426;49.420;8.390;2024-01-16T05:48:27;6.55;;;4.88;;
20535;SDS011;10426;49.420;8.390;2024-01-16T05:50:55;7.60;;;5.38;;
20535;SDS011;10426;49.420;8.390;2024-01-16T05:53:22;5.85;;;5.05;;
20535;SDS011;10426;49.420;8.390;2024-01-16T05:55:48;6.72;;;5.43;;
20535;SDS011;10426;49.420;8.390;2024-01-16T05:58:15;9.27;;;5.88;;
20535;SDS011;10426;49.420;8.390;2024-01-16T06:00:41;6.68;;;5.10;;
20535;SDS011;10426;49.420;8.390;2024-01-16T06:03:09;8.05;;;5.60;;
20535;SDS011;10426;49.420;8.390;2024-01-16T06:05:35;8.15;;;5.80;;
20535;SDS011;10426;49.420;8.390;2024-01-16T06:08:03;6.13;;;5.50;;
20535;SDS011;10426;49.420;8.390;2024-01-16T06:10:30;6.30;;;5.70;;
20535;SDS011;10426;49.420;8.390;2024-01-16T06:12:56;6.38;;;5.55;;
20535;SDS011;10426;49.420;8.390;2024-01-16T06:15:23;6.53;;;5.82;;
20535;SDS011;10426;49.420;8.390;2024-01-16T06:17:50;6.97;;;5.82;;
20535;SDS011;10426;49.420;8.390;2024-01-16T06:20:16;7.10;;;5.60;;
20535;SDS011;10426;49.420;8.390;2024-01-16T06:22:43;6.60;;;5.60;;
20535;SDS011;10426;49.420;8.390;2024-01-16T06:25:11;6.93;;;5.60;;
20535;SDS011;10426;49.420;8.390;2024-01-16T06:27:37;5.93;;;5.32;;
20535;SDS011;10426;49.420;8.390;2024-01-16T06:30:04;6.82;;;5.50;;
20535;SDS011;10426;49.420;8.390;2024-01-16T06:32:33;7.30;;;5.80;;
20535;SDS011;10426;49.420;8.390;2024-01-16T06:35:00;7.33;;;5.57;;
20535;SDS011;10426;49.420;8.390;2024-01-16T06:37:27;7.90;;;5.70;;
20535;SDS011;10426;49.420;8.390;2024-01-16T06:39:53;7.78;;;5.78;;
20535;SDS011;10426;49.420;8.390;2024-01-16T06:42:21;8.38;;;5.60;;
20535;SDS011;10426;49.420;8.390;2024-01-16T06:44:48;7.30;;;6.00;;
20535;SDS011;10426;49.420;8.390;2024-01-16T06:47:14;7.30;;;5.50;;
20535;SDS011;10426;49.420;8.390;2024-01-16T06:49:41;8.25;;;6.18;;
20535;SDS011;10426;49.420;8.390;2024-01-16T06:52:08;6.38;;;5.75;;
20535;SDS011;10426;49.420;8.390;2024-01-16T06:54:35;7.15;;;6.15;;
20535;SDS011;10426;49.420;8.390;2024-01-16T06:57:02;6.70;;;5.85;;
20535;SDS011;10426;49.420;8.390;2024-01-16T06:59:30;7.30;;;6.40;;
20535;SDS011;10426;49.420;8.390;2024-01-16T07:01:57;7.10;;;6.28;;
20535;SDS011;10426;49.420;8.390;2024-01-16T07:04:23;7.03;;;6.40;;
20535;SDS011;10426;49.420;8.390;2024-01-16T07:06:50;6.97;;;5.65;;
20535;SDS011;10426;49.420;8.390;2024-01-16T07:09:16;7.07;;;5.88;;
20535;SDS011;10426;49.420;8.390;2024-01-16T07:11:45;6.90;;;5.60;;
20535;SDS011;10426;49.420;8.390;2024-01-16T07:14:12;7.60;;;5.78;;
20535;SDS011;10426;49.420;8.390;2024-01-16T07:16:40;7.47;;;6.38;;
20535;SDS011;10426;49.420;8.390;2024-01-16T07:19:06;6.83;;;6.00;;
20535;SDS011;10426;49.420;8.390;2024-01-16T07:21:33;7.97;;;6.15;;
20535;SDS011;10426;49.420;8.390;2024-01-16T07:24:00;11.32;;;6.60;;
20535;SDS011;10426;49.420;8.390;2024-01-16T07:26:27;21.48;;;11.73;;
20535;SDS011;10426;49.420;8.390;2024-01-16T07:28:55;25.20;;;13.48;;
20535;SDS011;10426;49.420;8.390;2024-01-16T07:31:21;31.63;;;13.82;;
20535;SDS011;10426;49.420;8.390;2024-01-16T07:33:49;15.95;;;9.15;;
20535;SDS011;10426;49.420;8.390;2024-01-16T07:36:16;11.25;;;8.07;;
20535;SDS011;10426;49.420;8.390;2024-01-16T07:38:42;9.80;;;7.32;;
20535;SDS011;10426;49.420;8.390;2024-01-16T07:41:09;11.75;;;7.85;;
20535;SDS011;10426;49.420;8.390;2024-01-16T07:43:36;10.50;;;7.90;;
20535;SDS011;10426;49.420;8.390;2024-01-16T07:46:02;8.85;;;6.72;;
20535;SDS011;10426;49.420;8.390;2024-01-16T07:48:29;8.50;;;6.40;;
20535;SDS011;10426;49.420;8.390;2024-01-16T07:50:57;7.95;;;6.47;;
20535;SDS011;10426;49.420;8.390;2024-01-16T07:53:24;7.47;;;6.32;;
20535;SDS011;10426;49.420;8.390;2024-01-16T07:55:53;7.93;;;6.30;;
20535;SDS011;10426;49.420;8.390;2024-01-16T07:58:19;7.28;;;6.45;;
20535;SDS011;10426;49.420;8.390;2024-01-16T08:00:46;12.90;;;8.80;;
20535;SDS011;10426;49.420;8.390;2024-01-16T08:03:13;11.50;;;8.07;;
20535;SDS011;10426;49.420;8.390;2024-01-16T08:05:40;12.43;;;8.70;;
20535;SDS011;10426;49.420;8.390;2024-01-16T08:08:09;11.93;;;8.93;;
20535;SDS011;10426;49.420;8.390;2024-01-16T08:10:36;11.35;;;8.10;;
20535;SDS011;10426;49.420;8.390;2024-01-16T08:13:02;8.80;;;6.88;;
20535;SDS011;10426;49.420;8.390;2024-01-16T08:15:29;7.15;;;6.40;;
20535;SDS011;10426;49.420;8.390;2024-01-16T08:17:56;7.82;;;6.00;;
20535;SDS011;10426;49.420;8.390;2024-01-16T08:20:23;8.00;;;6.70;;
20535;SDS011;10426;49.420;8.390;2024-01-16T08:22:49;9.35;;;7.07;;
20535;SDS011;10426;49.420;8.390;2024-01-16T08:25:17;7.85;;;6.45;;
20535;SDS011;10426;49.420;8.390;2024-01-16T08:27:44;8.00;;;6.30;;
20535;SDS011;10426;49.420;8.390;2024-01-16T08:30:11;9.75;;;6.55;;
20535;SDS011;10426;49.420;8.390;2024-01-16T08:32:37;8.75;;;6.50;;
20535;SDS011;10426;49.420;8.390;2024-01-16T08:35:04;8.10;;;7.00;;
20535;SDS011;10426;49.420;8.390;2024-01-16T08:37:31;9.63;;;6.90;;
20535;SDS011;10426;49.420;8.390;2024-01-16T08:39:58;8.68;;;6.68;;
20535;SDS011;10426;49.420;8.390;2024-01-16T08:42:26;7.60;;;6.53;;
20535;SDS011;10426;49.420;8.390;2024-01-16T08:44:52;9.88;;;6.97;;
20535;SDS011;10426;49.420;8.390;2024-01-16T08:47:19;10.20;;;7.00;;
20535;SDS011;10426;49.420;8.390;2024-01-16T08:49:46;9.20;;;6.88;;
20535;SDS011;10426;49.420;8.390;2024-01-16T08:52:13;9.88;;;7.05;;
20535;SDS011;10426;49.420;8.390;2024-01-16T08:54:41;9.68;;;6.60;;
20535;SDS011;10426;49.420;8.390;2024-01-16T08:57:07;8.40;;;6.75;;
20535;SDS011;10426;49.420;8.390;2024-01-16T08:59:37;8.00;;;6.80;;
20535;SDS011;10426;49.420;8.390;2024-01-16T09:02:04;9.02;;;6.65;;
20535;SDS011;10426;49.420;8.390;2024-01-16T09:04:31;8.05;;;7.00;;
20535;SDS011;10426;49.420;8.390;2024-01-16T09:06:58;8.23;;;6.85;;
20535;SDS011;10426;49.420;8.390;2024-01-16T09:09:25;8.23;;;6.63;;
20535;SDS011;10426;49.420;8.390;2024-01-16T09:11:51;8.88;;;7.20;;
20535;SDS011;10426;49.420;8.390;2024-01-16T09:14:18;7.72;;;6.60;;
20535;SDS011;10426;49.420;8.390;2024-01-16T09:16:47;9.73;;;7.30;;
20535;SDS011;10426;49.420;8.390;2024-01-16T09:19:13;8.55;;;6.50;;
20535;SDS011;10426;49.420;8.390;2024-01-16T09:21:40;7.55;;;6.65;;
20535;SDS011;10426;49.420;8.390;2024-01-16T09:24:07;9.20;;;6.95;;
20535;SDS011;10426;49.420;8.390;2024-01-16T09:26:34;9.82;;;7.15;;
20535;SDS011;10426;49.420;8.390;2024-01-16T09:29:01;9.60;;;7.28;;
20535;SDS011;10426;49.420;8.390;2024-01-16T09:31:28;9.23;;;7.25;;
20535;SDS011;10426;49.420;8.390;2024-01-16T09:33:56;8.30;;;7.07;;
20535;SDS011;10426;49.420;8.390;2024-01-16T09:36:22;10.48;;;7.32;;
20535;SDS011;10426;49.420;8.390;2024-01-16T09:38:49;9.73;;;7.20;;
20535;SDS011;10426;49.420;8.390;2024-01-16T09:41:16;9.10;;;7.00;;
20535;SDS011;10426;49.420;8.390;2024-01-16T09:43:42;10.37;;;7.73;;
20535;SDS011;10426;49.420;8.390;2024-01-16T09:46:09;10.60;;;7.60;;
20535;SDS011;10426;49.420;8.390;2024-01-16T09:48:37;15.82;;;8.73;;
20535;SDS011;10426;49.420;8.390;2024-01-16T09:51:05;12.27;;;7.70;;
20535;SDS011;10426;49.420;8.390;2024-01-16T09:53:31;9.50;;;7.13;;
20535;SDS011;10426;49.420;8.390;2024-01-16T09:56:00;9.45;;;7.13;;
20535;SDS011;10426;49.420;8.390;2024-01-16T09:58:28;9.25;;;7.00;;
20535;SDS011;10426;49.420;8.390;2024-01-16T10:00:57;11.32;;;7.68;;
20535;SDS011;10426;49.420;8.390;2024-01-16T10:03:24;9.70;;;7.20;;
20535;SDS011;10426;49.420;8.390;2024-01-16T10:05:50;13.60;;;8.43;;
20535;SDS011;10426;49.420;8.390;2024-01-16T10:08:18;11.95;;;8.00;;
20535;SDS011;10426;49.420;8.390;2024-01-16T10:10:47;11.98;;;8.10;;
20535;SDS011;10426;49.420;8.390;2024-01-16T10:13:13;9.43;;;7.50;;
20535;SDS011;10426;49.420;8.390;2024-01-16T10:15:41;10.40;;;7.63;;
20535;SDS011;10426;49.420;8.390;2024-01-16T10:18:10;8.95;;;7.30;;
20535;SDS011;10426;49.420;8.390;2024-01-16T10:20:47;10.68;;;7.60;;
20535;SDS011;10426;49.420;8.390;2024-01-16T10:23:16;11.38;;;7.63;;
20535;SDS011;10426;49.420;8.390;2024-01-16T10:25:52;12.05;;;7.95;;
20535;SDS011;10426;49.420;8.390;2024-01-16T10:28:30;10.82;;;7.30;;
20535;SDS011;10426;49.420;8.390;2024-01-16T10:31:01;9.68;;;7.53;;
20535;SDS011;10426;49.420;8.390;2024-01-16T10:33:27;9.60;;;7.47;;
20535;SDS011;10426;49.420;8.390;2024-01-16T10:35:58;8.88;;;6.78;;
20535;SDS011;10426;49.420;8.390;2024-01-16T10:38:33;8.02;;;7.05;;
20535;SDS011;10426;49.420;8.390;2024-01-16T10:41:08;8.05;;;6.47;;
20535;SDS011;10426;49.420;8.390;2024-01-16T10:43:34;10.60;;;6.97;;
20535;SDS011;10426;49.420;8.390;2024-01-16T10:46:08;9.43;;;7.38;;
20535;SDS011;10426;49.420;8.390;2024-01-16T10:48:35;9.10;;;6.47;;
20535;SDS011;10426;49.420;8.390;2024-01-16T10:51:02;7.85;;;6.60;;
20535;SDS011;10426;49.420;8.390;2024-01-16T10:53:28;8.52;;;6.50;;
20535;SDS011;10426;49.420;8.390;2024-01-16T10:55:59;9.50;;;6.82;;
20535;SDS011;10426;49.420;8.390;2024-01-16T10:58:28;7.53;;;6.50;;
20535;SDS011;10426;49.420;8.390;2024-01-16T11:00:57;8.35;;;7.00;;
20535;SDS011;10426;49.420;8.390;2024-01-16T11:03:24;7.82;;;6.38;;
20535;SDS011;10426;49.420;8.390;2024-01-16T11:05:52;10.40;;;6.85;;
20535;SDS011;10426;49.420;8.390;2024-01-16T11:08:19;8.65;;;6.57;;
20535;SDS011;10426;49.420;8.390;2024-01-16T11:10:46;7.63;;;6.82;;
20535;SDS011;10426;49.420;8.390;2024-01-16T11:13:14;9.52;;;6.90;;
20535;SDS011;10426;49.420;8.390;2024-01-16T11:15:42;8.10;;;6.55;;
20535;SDS011;10426;49.420;8.390;2024-01-16T11:18:09;9.40;;;6.38;;
20535;SDS011;10426;49.420;8.390;2024-01-16T11:20:36;7.70;;;6.45;;
20535;SDS011;10426;49.420;8.390;2024-01-16T11:23:02;8.98;;;6.93;;
20535;SDS011;10426;49.420;8.390;2024-01-16T11:25:32;8.45;;;6.53;;
20535;SDS011;10426;49.420;8.390;2024-01-16T11:28:07;8.70;;;6.35;;
20535;SDS011;10426;49.420;8.390;2024-01-16T11:30:34;8.65;;;6.75;;
20535;SDS011;10426;49.420;8.390;2024-01-16T11:33:02;8.40;;;6.47;;
20535;SDS011;10426;49.420;8.390;2024-01-16T11:35:33;8.10;;;6.77;;
20535;SDS011;10426;49.420;8.390;2024-01-16T11:38:03;7.45;;;6.50;;
20535;SDS011;10426;49.420;8.390;2024-01-16T11:40:32;7.93;;;6.67;;
20535;SDS011;10426;49.420;8.390;2024-01-16T11:42:58;10.65;;;6.70;;
20535;SDS011;10426;49.420;8.390;2024-01-16T11:48:10;8.40;;;6.10;;
20535;SDS011;10426;49.420;8.390;2024-01-16T11:50:37;7.80;;;5.88;;
20535;SDS011;10426;49.420;8.390;2024-01-16T11:53:03;7.03;;;5.65;;
20535;SDS011;10426;49.420;8.390;2024-01-16T11:55:30;8.17;;;5.67;;
20535;SDS011;10426;49.420;8.390;2024-01-16T11:58:04;7.60;;;5.77;;
20535;SDS011;10426;49.420;8.390;2024-01-16T12:00:37;9.00;;;5.88;;
20535;SDS011;10426;49.420;8.390;2024-01-16T12:03:07;9.27;;;6.20;;
20535;SDS011;10426;49.420;8.390;2024-01-16T12:05:35;7.35;;;6.00;;
20535;SDS011;10426;49.420;8.390;2024-01-16T12:08:02;8.88;;;6.13;;
20535;SDS011;10426;49.420;8.390;2024-01-16T12:10:29;8.63;;;5.85;;
20535;SDS011;10426;49.420;8.390;2024-01-16T12:12:56;7.57;;;5.70;;
20535;SDS011;10426;49.420;8.390;2024-01-16T12:15:23;5.75;;;4.90;;
20535;SDS011;10426;49.420;8.390;2024-01-16T12:17:53;6.40;;;5.32;;
20535;SDS011;10426;49.420;8.390;2024-01-16T12:20:20;7.78;;;5.38;;
20535;SDS011;10426;49.420;8.390;2024-01-16T12:22:53;5.78;;;4.90;;
20535;SDS011;10426;49.420;8.390;2024-01-16T12:25:20;5.93;;;4.80;;
20535;SDS011;10426;49.420;8.390;2024-01-16T12:27:48;6.75;;;5.25;;
20535;SDS011;10426;49.420;8.390;2024-01-16T12:30:20;6.13;;;4.78;;
20535;SDS011;10426;49.420;8.390;2024-01-16T12:32:47;7.50;;;4.88;;
20535;SDS011;10426;49.420;8.390;2024-01-16T12:35:19;8.23;;;4.88;;
20535;SDS011;10426;49.420;8.390;2024-01-16T12:37:58;6.18;;;3.72;;
20535;SDS011;10426;49.420;8.390;2024-01-16T12:40:24;7.05;;;4.68;;
20535;SDS011;10426;49.420;8.390;2024-01-16T12:42:51;6.75;;;4.82;;
20535;SDS011;10426;49.420;8.390;2024-01-16T12:45:18;7.30;;;5.10;;
20535;SDS011;10426;49.420;8.390;2024-01-16T12:47:49;5.88;;;4.38;;
20535;SDS011;10426;49.420;8.390;2024-01-16T12:50:18;6.45;;;4.82;;
20535;SDS011;10426;49.420;8.390;2024-01-16T12:52:45;5.57;;;4.43;;
20535;SDS011;10426;49.420;8.390;2024-01-16T12:55:13;7.88;;;5.80;;
20535;SDS011;10426;49.420;8.390;2024-01-16T12:57:40;5.18;;;4.25;;
20535;SDS011;10426;49.420;8.390;2024-01-16T13:00:20;4.55;;;4.05;;
20535;SDS011;10426;49.420;8.390;2024-01-16T13:02:48;10.80;;;9.45;;
20535;SDS011;10426;49.420;8.390;2024-01-16T13:05:15;9.05;;;6.10;;
20535;SDS011;10426;49.420;8.390;2024-01-16T13:07:43;6.40;;;4.05;;
20535;SDS011;10426;49.420;8.390;2024-01-16T13:10:09;8.05;;;5.28;;
20535;SDS011;10426;49.420;8.390;2024-01-16T13:12:39;7.00;;;4.85;;
20535;SDS011;10426;49.420;8.390;2024-01-16T13:15:06;5.40;;;4.35;;
20535;SDS011;10426;49.420;8.390;2024-01-16T13:17:33;7.95;;;5.13;;
20535;SDS011;10426;49.420;8.390;2024-01-16T13:20:01;6.63;;;3.83;;
20535;SDS011;10426;49.420;8.390;2024-01-16T13:22:28;7.10;;;4.00;;
20535;SDS011;10426;49.420;8.390;2024-01-16T13:24:55;6.03;;;4.80;;
20535;SDS011;10426;49.420;8.390;2024-01-16T13:27:23;4.57;;;3.90;;
20535;SDS011;10426;49.420;8.390;2024-01-16T13:29:52;5.68;;;4.65;;
20535;SDS011;10426;49.420;8.390;2024-01-16T13:32:18;3.78;;;3.40;;
20535;SDS011;10426;49.420;8.390;2024-01-16T13:34:45;3.95;;;3.08;;
20535;SDS011;10426;49.420;8.390;2024-01-16T13:37:17;4.63;;;3.47;;
20535;SDS011;10426;49.420;8.390;2024-01-16T13:39:45;6.22;;;3.25;;
20535;SDS011;10426;49.420;8.390;2024-01-16T13:42:12;3.90;;;3.60;;
20535;SDS011;10426;49.420;8.390;2024-01-16T13:44:43;5.63;;;3.60;;
20535;SDS011;10426;49.420;8.390;2024-01-16T13:47:11;5.30;;;4.03;;
20535;SDS011;10426;49.420;8.390;2024-01-16T13:49:38;4.70;;;3.65;;
20535;SDS011;10426;49.420;8.390;2024-01-16T13:52:05;4.32;;;3.45;;
20535;SDS011;10426;49.420;8.390;2024-01-16T13:54:32;6.95;;;4.35;;
20535;SDS011;10426;49.420;8.390;2024-01-16T13:56:58;4.75;;;3.67;;
20535;SDS011;10426;49.420;8.390;2024-01-16T13:59:25;5.13;;;3.50;;
20535;SDS011;10426;49.420;8.390;2024-01-16T14:01:52;4.20;;;3.80;;
20535;SDS011;10426;49.420;8.390;2024-01-16T14:04:20;4.90;;;3.58;;
20535;SDS011;10426;49.420;8.390;2024-01-16T14:06:46;5.53;;;3.50;;
20535;SDS011;10426;49.420;8.390;2024-01-16T14:09:13;5.70;;;3.63;;
20535;SDS011;10426;49.420;8.390;2024-01-16T14:11:39;5.05;;;3.70;;
20535;SDS011;10426;49.420;8.390;2024-01-16T14:14:07;5.53;;;3.58;;
20535;SDS011;10426;49.420;8.390;2024-01-16T14:16:36;6.25;;;3.30;;
20535;SDS011;10426;49.420;8.390;2024-01-16T14:19:03;6.05;;;3.72;;
20535;SDS011;10426;49.420;8.390;2024-01-16T14:21:31;4.68;;;3.60;;
20535;SDS011;10426;49.420;8.390;2024-01-16T14:23:58;3.55;;;2.80;;
20535;SDS011;10426;49.420;8.390;2024-01-16T14:26:24;5.05;;;2.72;;
20535;SDS011;10426;49.420;8.390;2024-01-16T14:28:51;3.35;;;2.60;;
20535;SDS011;10426;49.420;8.390;2024-01-16T14:31:18;4.40;;;2.60;;
20535;SDS011;10426;49.420;8.390;2024-01-16T14:33:44;3.50;;;2.78;;
20535;SDS011;10426;49.420;8.390;2024-01-16T14:36:11;4.75;;;2.80;;
20535;SDS011;10426;49.420;8.390;2024-01-16T14:38:39;4.50;;;2.80;;
20535;SDS011;10426;49.420;8.390;2024-01-16T14:41:07;4.25;;;2.90;;
20535;SDS011;10426;49.420;8.390;2024-01-16T14:43:34;3.78;;;2.95;;
20535;SDS011;10426;49.420;8.390;2024-01-16T14:46:00;6.93;;;2.80;;
20535;SDS011;10426;49.420;8.390;2024-01-16T14:48:29;3.45;;;2.65;;